Flight Track Log - Related Links

Times and Time Zones

All times are in EST time to prevent confusion due to time zone crossing. See the N45NS flight status page for this flight to view local times or setup timezone preferences in your user account.

Time Position Orientation Groundspeed Altitude Reporting Facility
EST Latitude Longitude Course Direction KTS MPH feet Rate Location/Type
Mon 08:58:17 AM 40.8678 -81.8500 174° South 200 230 2,500  Level Cleveland Center
Mon 08:59:19 AM 40.8033 -81.8414 174° South 238 274 5,600 3,171 Climbing Cleveland Center
Mon 09:00:20 AM 40.7233 -81.8464 183° South 279 321 9,000 3,512 Climbing Cleveland Center
Mon 09:01:22 AM 40.6350 -81.8517 183° South 310 357 12,800 3,366 Climbing Cleveland Center
Mon 09:02:23 AM 40.5433 -81.8569 183° South 320 368 15,900 2,976 Climbing Cleveland Center
Mon 09:03:25 AM 40.4522 -81.8617 182° South 327 376 18,900 3,268 Climbing Cleveland Center
Mon 09:04:26 AM 40.3531 -81.8678 183° South 305 351 22,600 2,341 Climbing Cleveland Center
Mon 09:05:28 AM 40.2792 -81.8736 183° South 308 354 23,700 1,610 Climbing Cleveland Center
Mon 09:06:29 AM 40.1853 -81.8781 182° South 332 382 25,900 2,488 Climbing Cleveland Center
Mon 09:07:31 AM 40.0742 -81.8847 183° South 332 382 28,800 2,488 Climbing Cleveland Center
Mon 09:08:32 AM 39.9875 -81.8892 182° South 319 367 31,000 1,561 Climbing Cleveland Center
Mon 09:09:34 AM 39.9036 -81.8975 184° South 305 351 32,000 488 Climbing Cleveland Center
Mon 09:10:35 AM 39.8136 -81.9133 188° South 322 371 32,000  Level Cleveland Center
Mon 09:11:40 AM 39.7203 -81.9269 186° South 330 380 32,000  Level Indianapolis Center
Mon 09:12:41 AM 39.6242 -81.9419 187° South 330 380 32,000  Level Indianapolis Center
Mon 09:13:42 AM 39.5342 -81.9567 187° South 329 379 32,000  Level Indianapolis Center
Mon 09:14:44 AM 39.4433 -81.9700 186° South 329 379 32,000  Level Indianapolis Center
Mon 09:15:45 AM 39.3536 -81.9831 186° South 328 377 32,000  Level Indianapolis Center
Mon 09:16:46 AM 39.2636 -81.9969 187° South 328 377 32,000  Level Indianapolis Center
Mon 09:17:47 AM 39.1556 -82.0133 187° South 328 377 32,000  Level Indianapolis Center
Mon 09:18:49 AM 39.0672 -82.0269 187° South 326 375 32,000  Level Indianapolis Center
Mon 09:19:50 AM 38.9769 -82.0408 187° South 325 374 32,000  Level Indianapolis Center
Mon 09:20:51 AM 38.8844 -82.0533 186° South 330 380 32,000  Level Indianapolis Center
Mon 09:21:52 AM 38.7933 -82.0686 187° South 330 380 32,000  Level Indianapolis Center
Mon 09:22:54 AM 38.7006 -82.0817 186° South 332 382 32,000  Level Indianapolis Center
Mon 09:23:55 AM 38.6094 -82.0961 187° South 332 382 32,000  Level Indianapolis Center
Mon 09:24:56 AM 38.5186 -82.1092 186° South 332 382 32,000  Level Indianapolis Center
Mon 09:25:57 AM 38.4283 -82.1244 188° South 330 380 32,000  Level Indianapolis Center
Mon 09:26:58 AM 38.3186 -82.1386 186° South 330 380 32,000  Level Indianapolis Center
Mon 09:28:00 AM 38.2283 -82.1536 187° South 330 380 32,000  Level Indianapolis Center
Mon 09:29:01 AM 38.1367 -82.1675 187° South 330 380 32,000 -393 Level Indianapolis Center
Mon 09:30:02 AM 38.0464 -82.1803 186° South 327 376 31,200 -1,377 Descending Indianapolis Center
Mon 09:31:03 AM 37.9567 -82.1928 186° South 327 376 29,200 -1,902 Descending Indianapolis Center
Mon 09:32:05 AM 37.8692 -82.2061 187° South 320 368 27,300 -1,902 Descending Indianapolis Center
Mon 09:33:06 AM 37.7783 -82.2194 187° South 324 373 25,300 -2,016 Descending Indianapolis Center
Mon 09:34:07 AM 37.6850 -82.2331 187° South 330 380 23,200 -2,066 Descending Indianapolis Center
Mon 09:35:08 AM 37.5886 -82.2469 187° South 343 395 21,100 -2,146 Descending Indianapolis Center
Mon 09:36:10 AM 37.4875 -82.2619 187° South 359 413 18,800 -2,293 Descending Indianapolis Center
Mon 09:37:11 AM 37.3681 -82.2781 186° South 365 420 16,400 -2,164 Descending Indianapolis Center
Mon 09:38:12 AM 37.2703 -82.2917 186° South 360 414 14,400 -1,902 Descending Indianapolis Center
Mon 09:39:14 AM 37.1836 -82.3053 187° South 326 375 12,500 -1,854 Descending Indianapolis Center
Mon 09:40:15 AM 37.0958 -82.3186 187° South 319 367 10,600 -2,066 Descending Indianapolis Center
Mon 09:41:16 AM 37.0222 -82.3544 201° Southwest 292 336 8,300 -2,098 Descending Indianapolis Center
Mon 09:42:18 AM 36.9592 -82.3978 209° Southwest 267 307 6,300 -1,122 Descending Indianapolis Center
Mon 09:43:19 AM 36.8981 -82.4433 211° Southwest 259 298 6,000 -148 Descending Indianapolis Center
Mon 09:44:20 AM 36.8375 -82.4875 210° Southwest 254 292 6,000  Level Indianapolis Center
Mon 09:45:22 AM 36.7736 -82.5342 210° Southwest 255 293 6,000  Level Indianapolis Center
Mon 09:46:23 AM 36.7047 -82.5675 201° Southwest 266 306 6,000  Level Indianapolis Center
Mon 09:47:25 AM 36.6322 -82.5875 192° South 266 306 6,000  Level Indianapolis Center
Mon 09:48:26 AM 36.5472 -82.6111 193° South 266 306 6,000 -689 Level Indianapolis Center
Mon 09:49:27 AM 36.4733 -82.6328 193° South 266 306 4,600 -732 Descending Indianapolis Center
Mon 09:50:29 AM 36.4003 -82.6386 184° South 267 307 4,500 -244 Descending Indianapolis Center
Mon 09:51:30 AM 36.3358 -82.6169 165° South 256 295 4,100 -393 Descending Indianapolis Center

Login

Don't have an account? Register now (free) for customized features, flight alerts, and more!